createdAt,value
2022-09-25T00:02:44.455Z,14.78
2022-09-25T00:07:45.910Z,14.77
2022-09-25T00:12:47.315Z,14.76
2022-09-25T00:17:49.027Z,14.75
2022-09-25T00:22:50.849Z,14.74
2022-09-25T00:27:53.230Z,14.73
2022-09-25T00:32:54.600Z,14.75
2022-09-25T00:37:55.994Z,14.76
2022-09-25T00:42:57.372Z,14.75
2022-09-25T00:48:03.224Z,14.71
2022-09-25T00:53:10.408Z,14.71
2022-09-25T00:58:15.288Z,14.66
2022-09-25T01:03:17.476Z,14.59
2022-09-25T01:08:23.490Z,14.56
2022-09-25T01:13:25.717Z,14.48
2022-09-25T01:18:42.601Z,14.48
2022-09-25T01:24:10.953Z,14.48
2022-09-25T01:29:49.325Z,14.47
2022-09-25T01:35:00.761Z,14.42
2022-09-25T01:40:10.205Z,14.45
2022-09-25T01:45:38.738Z,14.49
2022-09-25T01:50:50.482Z,14.49
2022-09-25T01:55:58.124Z,14.47
2022-09-25T02:01:06.530Z,14.51
2022-09-25T02:06:12.828Z,14.51
2022-09-25T02:11:14.443Z,14.49
2022-09-25T02:16:44.536Z,14.46
2022-09-25T02:22:08.436Z,14.46
2022-09-25T02:27:09.896Z,14.45
2022-09-25T02:32:18.961Z,14.46
2022-09-25T02:37:20.355Z,14.48
2022-09-25T02:42:40.627Z,14.49
2022-09-25T02:48:09.304Z,14.51
2022-09-25T02:53:21.211Z,14.50
2022-09-25T02:58:41.388Z,14.47
2022-09-25T03:03:45.881Z,14.47
2022-09-25T03:08:52.992Z,14.48
2022-09-25T03:14:02.831Z,14.48
2022-09-25T03:19:04.265Z,14.46
2022-09-25T03:24:06.244Z,14.48
2022-09-25T03:29:07.946Z,14.46
2022-09-25T03:34:12.178Z,14.50
2022-09-25T03:39:17.669Z,14.54
2022-09-25T03:44:19.096Z,14.59
2022-09-25T03:49:20.581Z,14.60
2022-09-25T03:54:22.020Z,14.60
2022-09-25T03:59:23.875Z,14.61
2022-09-25T04:04:25.361Z,14.61
2022-09-25T04:09:26.816Z,14.63
2022-09-25T04:14:28.240Z,14.68
2022-09-25T04:19:29.671Z,14.65
2022-09-25T04:24:49.035Z,14.65
2022-09-25T04:29:50.512Z,14.62
2022-09-25T04:34:51.990Z,14.58
2022-09-25T04:39:58.241Z,14.48
2022-09-25T04:44:59.991Z,14.38
2022-09-25T04:50:01.688Z,14.30
2022-09-25T04:55:04.350Z,14.25
2022-09-25T05:00:06.796Z,14.25
2022-09-25T05:05:08.733Z,14.28
2022-09-25T05:10:10.295Z,14.27
2022-09-25T05:15:11.686Z,14.25
2022-09-25T05:20:13.214Z,14.22
2022-09-25T05:25:14.770Z,14.22
2022-09-25T05:30:16.906Z,14.20
2022-09-25T05:35:23.594Z,14.21
2022-09-25T05:40:25.481Z,14.26
2022-09-25T05:45:27.095Z,14.32
2022-09-25T05:50:28.947Z,14.40
2022-09-25T05:55:30.978Z,14.47
2022-09-25T06:00:33.275Z,14.52
2022-09-25T06:05:34.970Z,14.55
2022-09-25T06:10:36.513Z,14.61
2022-09-25T06:15:41.745Z,14.64
2022-09-25T06:20:43.404Z,14.65
2022-09-25T06:25:45.473Z,14.68
2022-09-25T06:30:47.870Z,14.67
2022-09-25T06:35:50.395Z,14.62
2022-09-25T06:40:51.961Z,14.59
2022-09-25T06:45:53.567Z,14.59
2022-09-25T06:50:57.172Z,14.60
2022-09-25T06:55:59.921Z,14.60
2022-09-25T07:01:06.313Z,14.65
2022-09-25T07:06:22.082Z,14.72
2022-09-25T07:11:27.358Z,14.85
2022-09-25T07:16:30.990Z,14.97
2022-09-25T07:21:32.709Z,15.14
2022-09-25T07:26:34.911Z,15.36
2022-09-25T07:31:38.264Z,15.38
2022-09-25T07:36:42.868Z,15.36
2022-09-25T07:41:44.413Z,15.47
2022-09-25T07:46:46.376Z,15.65
2022-09-25T07:51:48.044Z,15.76
2022-09-25T07:56:49.511Z,15.79
2022-09-25T08:01:53.890Z,15.69
2022-09-25T08:06:57.994Z,15.61
2022-09-25T08:11:59.547Z,15.65
2022-09-25T08:17:01.869Z,15.83
2022-09-25T08:22:03.630Z,15.89
2022-09-25T08:27:07.747Z,15.98
2022-09-25T08:32:09.584Z,15.96
2022-09-25T08:37:11.135Z,15.83
2022-09-25T08:42:25.108Z,15.87
2022-09-25T08:47:47.839Z,16.01
2022-09-25T08:52:55.143Z,15.99
2022-09-25T08:57:56.644Z,16.02
2022-09-25T09:02:58.839Z,16.14
2022-09-25T09:08:15.597Z,16.19
2022-09-25T09:13:44.647Z,16.10
2022-09-25T09:18:46.466Z,16.14
2022-09-25T09:24:08.633Z,16.18
2022-09-25T09:29:30.687Z,16.27
2022-09-25T09:35:06.305Z,16.33
2022-09-25T09:40:36.591Z,16.81
2022-09-25T09:45:53.139Z,17.50
2022-09-25T09:51:01.642Z,18.14
2022-09-25T09:56:18.889Z,18.45
2022-09-25T10:01:42.066Z,19.62
2022-09-25T10:06:53.929Z,21.39
2022-09-25T10:12:14.727Z,21.30
2022-09-25T10:17:18.381Z,21.44
2022-09-25T10:22:24.527Z,21.38
2022-09-25T10:27:30.379Z,21.70
2022-09-25T10:32:42.704Z,22.38
2022-09-25T10:37:44.827Z,23.30
2022-09-25T10:42:46.524Z,22.59
2022-09-25T10:48:09.030Z,21.62
2022-09-25T10:53:29.028Z,20.54
2022-09-25T10:58:41.301Z,19.64
2022-09-25T11:03:58.373Z,19.12
2022-09-25T11:09:13.972Z,18.72
2022-09-25T11:14:33.335Z,18.26
2022-09-25T11:19:37.430Z,17.86
2022-09-25T11:25:01.224Z,17.68
2022-09-25T11:30:13.066Z,17.78
2022-09-25T11:35:26.949Z,17.79
2022-09-25T11:40:59.316Z,17.90
2022-09-25T11:46:11.134Z,17.84
2022-09-25T11:51:53.045Z,17.71
2022-09-25T11:57:04.217Z,17.67
2022-09-25T12:02:30.830Z,17.65
2022-09-25T12:07:42.617Z,17.86
2022-09-25T12:12:59.445Z,18.14
2022-09-25T12:18:15.538Z,18.52
2022-09-25T12:23:36.951Z,18.69
2022-09-25T12:28:52.368Z,18.67
2022-09-25T12:34:09.241Z,18.71
2022-09-25T12:39:37.306Z,18.63
2022-09-25T12:44:53.107Z,18.54
2022-09-25T12:50:28.820Z,18.68
2022-09-25T12:55:40.963Z,18.82
2022-09-25T13:00:44.191Z,19.07
2022-09-25T13:05:52.234Z,19.29
2022-09-25T13:11:02.035Z,19.51
2022-09-25T13:16:03.737Z,19.69
2022-09-25T13:21:36.844Z,19.61
2022-09-25T13:26:53.534Z,19.40
2022-09-25T13:32:06.723Z,19.35
2022-09-25T13:37:11.631Z,19.22
2022-09-25T13:42:30.997Z,18.94
2022-09-25T13:47:43.001Z,18.81
2022-09-25T13:52:47.189Z,18.69
2022-09-25T13:58:01.480Z,18.64
2022-09-25T14:03:03.961Z,18.41
2022-09-25T14:08:12.610Z,18.29
2022-09-25T14:13:17.649Z,18.02
2022-09-25T14:18:32.915Z,17.98
2022-09-25T14:23:34.395Z,18.07
2022-09-25T14:28:47.002Z,17.99
2022-09-25T14:34:07.097Z,17.57
2022-09-25T14:39:40.696Z,17.42
2022-09-25T14:45:02.580Z,17.37
2022-09-25T14:50:05.610Z,17.47
2022-09-25T14:55:07.553Z,17.30
2022-09-25T15:00:16.529Z,17.38
2022-09-25T15:05:17.999Z,17.43
2022-09-25T15:10:36.485Z,17.38
2022-09-25T15:15:40.151Z,17.43
2022-09-25T15:20:47.526Z,17.25
2022-09-25T15:25:52.961Z,17.09
2022-09-25T15:30:59.686Z,16.98
2022-09-25T15:36:20.231Z,17.07
2022-09-25T15:41:23.752Z,17.17
2022-09-25T15:46:37.252Z,17.16
2022-09-25T15:51:38.788Z,17.03
2022-09-25T15:56:51.001Z,16.78
2022-09-25T16:02:11.815Z,16.45
2022-09-25T16:07:33.958Z,16.10
2022-09-25T16:12:50.460Z,15.89
2022-09-25T16:18:00.144Z,15.56
2022-09-25T16:23:16.762Z,15.38
2022-09-25T16:28:22.984Z,15.22
2022-09-25T16:33:31.307Z,15.06
2022-09-25T16:38:35.896Z,14.82
2022-09-25T16:43:39.438Z,14.62
2022-09-25T16:48:44.705Z,14.53
2022-09-25T16:53:46.539Z,14.53
2022-09-25T16:58:49.450Z,14.59
2022-09-25T17:03:51.463Z,14.61
2022-09-25T17:08:53.250Z,14.62
2022-09-25T17:13:55.100Z,14.63
2022-09-25T17:19:01.232Z,14.64
2022-09-25T17:24:03.098Z,14.63
2022-09-25T17:29:05.534Z,14.61
2022-09-25T17:34:17.180Z,14.62
2022-09-25T17:39:18.666Z,14.63
2022-09-25T17:44:23.394Z,14.61
2022-09-25T17:49:25.568Z,14.63
2022-09-25T17:54:29.944Z,14.62
2022-09-25T17:59:31.415Z,14.62
2022-09-25T18:04:32.973Z,14.60
2022-09-25T18:09:34.462Z,14.55
2022-09-25T18:14:35.983Z,14.48
2022-09-25T18:19:55.751Z,14.32
2022-09-25T18:24:57.453Z,14.31
2022-09-25T18:29:59.074Z,14.31
2022-09-25T18:35:02.455Z,14.26
2022-09-25T18:40:04.561Z,14.25
2022-09-25T18:45:06.969Z,14.23
2022-09-25T18:50:10.313Z,14.21
2022-09-25T18:55:12.442Z,14.23
2022-09-25T19:00:14.326Z,14.24
2022-09-25T19:05:17.529Z,14.27
2022-09-25T19:10:19.108Z,14.27
2022-09-25T19:15:20.545Z,14.29
2022-09-25T19:20:22.033Z,14.23
2022-09-25T19:25:23.511Z,14.16
2022-09-25T19:30:25.012Z,14.00
2022-09-25T19:35:26.889Z,13.88
2022-09-25T19:40:37.543Z,13.79
2022-09-25T19:45:39.084Z,13.65
2022-09-25T19:50:41.691Z,13.61
2022-09-25T19:55:43.374Z,13.56
2022-09-25T20:00:45.154Z,13.50
2022-09-25T20:05:48.908Z,13.41
2022-09-25T20:10:50.348Z,13.34
2022-09-25T20:15:52.088Z,13.32
2022-09-25T20:20:53.571Z,13.33
2022-09-25T20:25:55.467Z,13.31
2022-09-25T20:30:56.955Z,13.28
2022-09-25T20:36:05.580Z,13.24
2022-09-25T20:41:11.189Z,13.20
2022-09-25T20:46:13.702Z,13.13
2022-09-25T20:51:17.675Z,13.15
2022-09-25T20:56:19.796Z,13.23
2022-09-25T21:01:23.504Z,13.30
2022-09-25T21:06:27.868Z,13.35
2022-09-25T21:11:32.041Z,13.41
2022-09-25T21:16:33.936Z,13.36
2022-09-25T21:21:35.828Z,13.30
2022-09-25T21:26:37.274Z,13.30
2022-09-25T21:31:43.784Z,13.40
2022-09-25T21:36:48.570Z,13.44
2022-09-25T21:41:50.268Z,13.47
2022-09-25T21:46:52.065Z,13.48
2022-09-25T21:51:53.573Z,13.45
2022-09-25T21:56:55.035Z,13.39
2022-09-25T22:01:58.542Z,13.31
2022-09-25T22:07:00.045Z,13.27
2022-09-25T22:12:01.708Z,13.21
2022-09-25T22:17:03.225Z,13.12
2022-09-25T22:22:04.844Z,13.02
2022-09-25T22:27:06.394Z,12.93
2022-09-25T22:32:07.902Z,12.84
2022-09-25T22:37:09.457Z,12.72
2022-09-25T22:42:10.987Z,12.56
2022-09-25T22:47:12.512Z,12.40
2022-09-25T22:52:14.807Z,12.28
2022-09-25T22:57:16.400Z,12.12
2022-09-25T23:02:17.854Z,11.96
2022-09-25T23:07:19.365Z,11.85
2022-09-25T23:12:20.992Z,11.79
2022-09-25T23:17:22.531Z,11.78
2022-09-25T23:22:23.977Z,11.79
2022-09-25T23:27:25.449Z,11.83
2022-09-25T23:32:26.933Z,11.79
2022-09-25T23:37:29.196Z,11.65
2022-09-25T23:42:30.697Z,11.50
2022-09-25T23:47:32.373Z,11.35
2022-09-25T23:52:35.203Z,11.26
2022-09-25T23:57:37.874Z,11.34
